Time;durP1;ratioP1;P1;durP2;ratioP2;P2;SDS_P1;SDS_P2;PMS_P1;PMS_P2;Temp;Humidity;BMP_temperature;BMP_pressure;BME280_temperature;BME280_humidity;BME280_pressure;Samples;Min_cycle;Max_cycle;Signal;HPM_P1;HPM_P2
2022/07/08 00:01:54;;;;;;;4.07;2.20;;;22.90;63.50;;;;;;5003814;28;20037;-66
2022/07/08 00:04:20;;;;;;;8.40;2.53;;;22.90;63.60;;;;;;5004047;28;20054;-66
2022/07/08 00:06:47;;;;;;;6.68;2.45;;;22.90;63.60;;;;;;5004875;28;20022;-67
2022/07/08 00:09:12;;;;;;;5.25;2.00;;;22.90;63.60;;;;;;5005283;28;20038;-66
2022/07/08 00:11:39;;;;;;;5.13;2.40;;;22.80;63.60;;;;;;5006088;28;20091;-66
2022/07/08 00:14:04;;;;;;;6.05;2.63;;;22.80;63.60;;;;;;5000218;28;20092;-66
2022/07/08 00:16:30;;;;;;;6.18;2.40;;;22.80;63.60;;;;;;5003971;28;20442;-66
2022/07/08 00:18:56;;;;;;;6.20;2.40;;;22.80;63.60;;;;;;5004831;28;20050;-66
2022/07/08 00:21:23;;;;;;;7.68;2.20;;;22.80;63.70;;;;;;5004805;28;20049;-66
2022/07/08 00:23:48;;;;;;;5.20;2.33;;;22.80;63.70;;;;;;5005828;28;20029;-66
2022/07/08 00:26:14;;;;;;;7.50;2.45;;;22.80;63.70;;;;;;5004890;28;20891;-66
2022/07/08 00:28:40;;;;;;;6.20;2.33;;;22.80;63.70;;;;;;5005640;28;20617;-66
2022/07/08 00:31:06;;;;;;;7.13;2.50;;;22.80;63.80;;;;;;5005047;28;20026;-66
2022/07/08 00:33:31;;;;;;;5.22;2.25;;;22.80;63.70;;;;;;5005793;28;20087;-66
2022/07/08 00:35:57;;;;;;;6.13;2.60;;;22.80;63.70;;;;;;5005248;28;20018;-66
2022/07/08 00:38:23;;;;;;;6.18;2.40;;;22.80;63.80;;;;;;5005693;28;20030;-66
2022/07/08 00:40:48;;;;;;;6.35;2.33;;;22.80;63.80;;;;;;5007061;28;20026;-66
2022/07/08 00:43:33;;;;;;;6.18;2.40;;;22.70;63.60;;;;;;5003996;28;20097;-66
2022/07/08 00:45:58;;;;;;;6.05;2.30;;;22.80;63.60;;;;;;5005953;28;20123;-66
2022/07/08 00:48:24;;;;;;;7.18;2.42;;;22.70;63.70;;;;;;5006121;28;20066;-66
2022/07/08 00:50:50;;;;;;;4.45;2.45;;;22.70;63.60;;;;;;5006015;28;20445;-66
2022/07/08 00:53:16;;;;;;;4.43;2.22;;;22.70;63.60;;;;;;5004301;28;20038;-66
2022/07/08 00:55:41;;;;;;;5.70;2.20;;;22.70;63.60;;;;;;5000739;28;20046;-66
2022/07/08 00:58:07;;;;;;;3.97;2.05;;;22.70;63.70;;;;;;5004221;28;20061;-66
2022/07/08 01:00:33;;;;;;;6.13;2.70;;;22.70;63.70;;;;;;5021200;28;20049;-66
2022/07/08 01:02:58;;;;;;;5.55;2.40;;;22.70;63.70;;;;;;5008095;28;20620;-66
2022/07/08 01:05:24;;;;;;;6.45;2.67;;;22.70;63.70;;;;;;5008212;28;20041;-66
2022/07/08 01:07:50;;;;;;;5.85;2.38;;;22.70;63.70;;;;;;5008187;28;20025;-66
2022/07/08 01:10:15;;;;;;;5.97;2.25;;;22.70;63.80;;;;;;5008108;28;20022;-66
2022/07/08 01:12:41;;;;;;;5.50;2.25;;;22.70;63.70;;;;;;5017004;28;20045;-66
2022/07/08 01:15:07;;;;;;;4.65;2.40;;;22.60;63.70;;;;;;5009192;28;20034;-66
2022/07/08 01:17:45;;;;;;;4.20;2.15;;;22.60;63.80;;;;;;5009173;28;20038;-66
2022/07/08 01:20:11;;;;;;;5.07;2.42;;;22.70;63.80;;;;;;5009263;28;20053;-66
2022/07/08 01:22:37;;;;;;;6.35;2.40;;;22.60;63.80;;;;;;5005974;28;20029;-66
2022/07/08 01:25:06;;;;;;;8.20;3.08;;;22.60;64.90;;;;;;5006385;28;20030;-66
2022/07/08 01:27:32;;;;;;;7.93;2.58;;;22.60;63.90;;;;;;5004950;28;20030;-66
2022/07/08 01:29:58;;;;;;;8.98;2.72;;;22.60;64.00;;;;;;5022117;28;20471;-66
2022/07/08 01:32:32;;;;;;;4.32;2.25;;;22.70;64.10;;;;;;5007183;28;20029;-66
2022/07/08 01:34:58;;;;;;;8.05;2.80;;;22.60;64.00;;;;;;5007721;28;20033;-66
2022/07/08 01:37:23;;;;;;;6.57;2.42;;;22.60;64.00;;;;;;5005621;28;20034;-66
2022/07/08 01:39:49;;;;;;;7.68;2.47;;;22.60;64.10;;;;;;5005718;28;20046;-66
2022/07/08 01:42:15;;;;;;;7.13;2.42;;;22.60;64.10;;;;;;5007704;28;20030;-66
2022/07/08 01:44:40;;;;;;;9.18;2.47;;;22.60;64.10;;;;;;5007280;28;20034;-66
2022/07/08 01:47:06;;;;;;;7.28;2.53;;;22.60;64.10;;;;;;5005550;28;20030;-66
2022/07/08 01:49:32;;;;;;;6.63;2.40;;;22.60;64.10;;;;;;5006507;28;20108;-66
2022/07/08 01:51:58;;;;;;;7.47;2.75;;;22.60;64.10;;;;;;5008959;28;20033;-66
2022/07/08 01:54:23;;;;;;;6.68;2.58;;;22.50;64.10;;;;;;5020888;28;20080;-66
2022/07/08 01:56:49;;;;;;;5.40;2.50;;;22.50;64.10;;;;;;5006205;28;20449;-66
2022/07/08 01:59:15;;;;;;;8.55;2.63;;;22.50;64.10;;;;;;5005982;28;20717;-66
2022/07/08 02:01:40;;;;;;;8.68;3.00;;;22.50;64.20;;;;;;5006480;28;20058;-66
2022/07/08 02:04:06;;;;;;;7.25;2.40;;;22.50;64.10;;;;;;5007581;28;20046;-66
2022/07/08 02:06:32;;;;;;;10.00;2.90;;;22.50;64.20;;;;;;5007098;28;20018;-66
2022/07/08 02:08:57;;;;;;;9.07;2.85;;;22.60;64.30;;;;;;5006939;28;20095;-66
2022/07/08 02:14:07;;;;;;;7.60;2.60;;;22.50;64.20;;;;;;5007029;28;20044;-66
2022/07/08 02:16:33;;;;;;;5.63;2.67;;;22.50;64.30;;;;;;5006016;28;20022;-66
2022/07/08 02:18:59;;;;;;;7.45;2.72;;;22.50;64.30;;;;;;5006341;28;20085;-66
2022/07/08 02:21:24;;;;;;;9.32;2.95;;;22.50;64.40;;;;;;5005680;28;21621;-66
2022/07/08 02:23:50;;;;;;;7.72;2.70;;;22.50;64.40;;;;;;5005778;28;20026;-66
2022/07/08 02:26:16;;;;;;;7.38;2.80;;;22.50;64.40;;;;;;5006304;28;20553;-66
2022/07/08 02:28:41;;;;;;;7.57;2.40;;;22.50;64.40;;;;;;5005822;28;20026;-66
2022/07/08 02:31:07;;;;;;;6.53;2.60;;;22.50;64.40;;;;;;5007280;28;20041;-66
2022/07/08 02:33:33;;;;;;;7.65;2.80;;;22.50;64.50;;;;;;5007451;28;20026;-66
2022/07/08 02:35:58;;;;;;;9.27;2.88;;;22.40;64.50;;;;;;5007501;28;20553;-66
2022/07/08 02:38:25;;;;;;;6.18;2.60;;;22.50;64.50;;;;;;5005604;28;20394;-66
2022/07/08 02:40:51;;;;;;;6.07;2.40;;;22.40;64.50;;;;;;5006528;28;20068;-66
2022/07/08 02:43:16;;;;;;;8.35;2.65;;;22.50;64.60;;;;;;5008956;28;20026;-66
2022/07/08 02:45:42;;;;;;;7.75;2.80;;;22.40;64.40;;;;;;5006139;28;20026;-66
2022/07/08 02:48:08;;;;;;;6.13;2.65;;;22.50;64.60;;;;;;5007273;28;20490;-66
2022/07/08 02:50:34;;;;;;;7.25;2.67;;;22.50;64.50;;;;;;5007079;28;20609;-66
2022/07/08 02:52:59;;;;;;;5.70;2.28;;;22.40;64.50;;;;;;5006040;28;20026;-66
2022/07/08 02:55:25;;;;;;;6.22;2.60;;;22.40;64.50;;;;;;5005213;28;20022;-66
2022/07/08 02:57:51;;;;;;;5.50;2.40;;;22.40;64.50;;;;;;5007666;28;20037;-66
2022/07/08 03:00:17;;;;;;;7.30;2.75;;;22.40;64.50;;;;;;5007367;28;20511;-66
2022/07/08 03:02:42;;;;;;;6.97;2.30;;;22.40;64.60;;;;;;5004505;28;20049;-66
2022/07/08 03:05:08;;;;;;;8.00;2.85;;;22.40;64.60;;;;;;5004342;28;20038;-66
2022/07/08 03:07:34;;;;;;;6.53;2.45;;;22.40;64.50;;;;;;5006619;28;20442;-66
2022/07/08 03:09:59;;;;;;;6.22;2.47;;;22.40;64.50;;;;;;5005168;28;20040;-66
2022/07/08 03:12:26;;;;;;;6.05;2.40;;;22.40;64.50;;;;;;5005494;28;20033;-65
2022/07/08 03:14:51;;;;;;;6.07;2.45;;;22.40;64.50;;;;;;5006722;28;20604;-66
2022/07/08 03:17:17;;;;;;;7.53;2.60;;;22.30;64.50;;;;;;5005600;28;20077;-66
2022/07/08 03:19:43;;;;;;;5.22;2.40;;;22.30;64.50;;;;;;5007436;28;20104;-66
2022/07/08 03:22:08;;;;;;;6.43;2.35;;;22.40;64.60;;;;;;5003388;28;20105;-66
2022/07/08 03:24:34;;;;;;;6.47;2.53;;;22.40;65.60;;;;;;5007246;28;20037;-66
2022/07/08 03:27:00;;;;;;;5.72;2.42;;;22.40;64.60;;;;;;5005395;28;20069;-66
2022/07/08 03:29:25;;;;;;;6.22;2.50;;;22.30;64.50;;;;;;5005196;28;20104;-66
2022/07/08 03:31:51;;;;;;;8.18;2.78;;;22.30;64.50;;;;;;5004930;28;20133;-66
2022/07/08 03:34:17;;;;;;;5.32;2.33;;;22.30;64.50;;;;;;5004934;28;20113;-66
2022/07/08 03:36:42;;;;;;;6.00;2.55;;;22.30;64.50;;;;;;5006456;28;20076;-66
2022/07/08 03:39:08;;;;;;;5.00;2.20;;;22.30;64.50;;;;;;5005639;28;20033;-66
2022/07/08 03:41:34;;;;;;;6.05;2.55;;;22.30;64.50;;;;;;5002918;28;20149;-66
2022/07/08 03:43:59;;;;;;;5.22;2.20;;;22.30;64.40;;;;;;5006673;28;20034;-66
2022/07/08 03:46:25;;;;;;;6.53;2.50;;;22.30;64.40;;;;;;5004304;28;20025;-65
2022/07/08 03:48:51;;;;;;;5.80;2.50;;;22.30;64.50;;;;;;5006813;28;20034;-66
2022/07/08 03:51:16;;;;;;;7.10;2.30;;;22.30;64.50;;;;;;5005743;28;20399;-66
2022/07/08 03:53:42;;;;;;;5.95;2.30;;;22.30;64.50;;;;;;5005778;28;20036;-66
2022/07/08 03:56:08;;;;;;;5.53;2.50;;;22.30;64.40;;;;;;5004279;28;20449;-66
2022/07/08 03:58:34;;;;;;;7.07;2.40;;;22.30;64.50;;;;;;5004473;28;20026;-66
2022/07/08 04:01:00;;;;;;;5.40;2.40;;;22.30;64.50;;;;;;5004682;28;20561;-66
2022/07/08 04:03:26;;;;;;;5.70;2.40;;;22.30;64.50;;;;;;5005005;28;20061;-66
2022/07/08 04:05:51;;;;;;;6.82;2.60;;;22.20;64.40;;;;;;5006470;28;20033;-66
2022/07/08 04:08:18;;;;;;;4.38;2.20;;;22.20;64.40;;;;;;5004676;28;20026;-66
2022/07/08 04:10:44;;;;;;;5.90;2.40;;;22.20;64.40;;;;;;5004780;28;20030;-66
2022/07/08 04:13:10;;;;;;;5.07;2.25;;;22.20;64.50;;;;;;5003924;28;20525;-66
2022/07/08 04:15:35;;;;;;;5.55;2.30;;;22.20;64.40;;;;;;5004957;28;20041;-66
2022/07/08 04:18:01;;;;;;;5.85;2.10;;;22.20;64.50;;;;;;5004643;28;20054;-66
2022/07/08 04:20:30;;;;;;;4.85;2.47;;;22.20;64.40;;;;;;5005272;28;20521;-66
2022/07/08 04:22:56;;;;;;;4.97;2.28;;;22.20;64.40;;;;;;5008169;28;20040;-66
2022/07/08 04:25:22;;;;;;;3.88;2.08;;;22.20;64.40;;;;;;5002930;28;20026;-66
2022/07/08 04:27:47;;;;;;;5.72;2.30;;;22.20;64.40;;;;;;5003834;28;20033;-66
2022/07/08 04:30:13;;;;;;;5.30;2.15;;;22.20;64.40;;;;;;5004256;28;20036;-66
2022/07/08 04:32:39;;;;;;;6.50;2.38;;;22.20;64.40;;;;;;5004927;28;20037;-67
2022/07/08 04:35:05;;;;;;;5.43;2.40;;;22.10;64.40;;;;;;5021607;28;20499;-66
2022/07/08 04:37:31;;;;;;;6.25;2.20;;;22.10;64.40;;;;;;5009749;28;20029;-66
2022/07/08 04:39:56;;;;;;;5.60;2.10;;;22.20;64.40;;;;;;5010679;28;20034;-66
2022/07/08 04:42:22;;;;;;;4.43;2.28;;;22.10;64.40;;;;;;5010572;28;20030;-66
2022/07/08 04:44:48;;;;;;;6.10;2.45;;;22.10;64.50;;;;;;5006124;28;20079;-66
2022/07/08 04:47:13;;;;;;;7.13;2.25;;;22.10;64.30;;;;;;5011034;28;20018;-66
2022/07/08 04:49:39;;;;;;;5.90;2.20;;;22.10;64.40;;;;;;5008052;28;20108;-66
2022/07/08 04:52:07;;;;;;;5.57;2.38;;;22.00;64.30;;;;;;5009070;28;20038;-66
2022/07/08 04:54:34;;;;;;;6.55;2.35;;;22.10;64.40;;;;;;5009483;28;20041;-66
2022/07/08 04:56:59;;;;;;;6.47;2.60;;;22.10;64.40;;;;;;5011280;28;20037;-66
2022/07/08 04:59:25;;;;;;;7.55;2.83;;;22.10;64.40;;;;;;5008475;28;20038;-66
2022/07/08 05:01:51;;;;;;;10.27;3.45;;;22.10;64.40;;;;;;5007550;28;20139;-66
2022/07/08 05:04:17;;;;;;;10.00;3.00;;;22.10;64.40;;;;;;5009519;28;20026;-66
2022/07/08 05:06:43;;;;;;;9.10;3.50;;;22.10;64.40;;;;;;5007581;28;20026;-66
2022/07/08 05:09:08;;;;;;;9.07;3.35;;;22.10;64.40;;;;;;5006316;28;20056;-66
2022/07/08 05:11:34;;;;;;;9.90;3.35;;;22.10;64.40;;;;;;5006497;28;20034;-66
2022/07/08 05:14:00;;;;;;;10.63;3.60;;;22.00;64.40;;;;;;5007711;28;20045;-66
2022/07/08 05:16:25;;;;;;;10.27;3.80;;;22.00;64.40;;;;;;5009861;28;20034;-65
2022/07/08 05:18:51;;;;;;;9.55;3.83;;;22.00;64.40;;;;;;5009112;28;20050;-66
2022/07/08 05:21:19;;;;;;;11.60;4.57;;;22.00;64.30;;;;;;5007209;28;20224;-66
2022/07/08 05:23:44;;;;;;;8.32;3.78;;;22.00;62.50;;;;;;5007829;28;20128;-65
2022/07/08 05:26:10;;;;;;;8.50;3.60;;;22.00;62.20;;;;;;5006249;28;20160;-66
2022/07/08 05:28:36;;;;;;;7.32;3.63;;;22.00;61.40;;;;;;5007304;28;20128;-66
2022/07/08 05:31:01;;;;;;;9.05;3.95;;;22.00;60.40;;;;;;5005683;28;20030;-66
2022/07/08 05:33:27;;;;;;;7.55;3.63;;;22.00;60.10;;;;;;5006745;28;20033;-66
2022/07/08 05:35:53;;;;;;;6.93;3.05;;;22.00;60.30;;;;;;5006143;28;20048;-66
2022/07/08 05:38:19;;;;;;;8.52;2.92;;;22.00;61.80;;;;;;5020086;28;20025;-66
2022/07/08 05:40:44;;;;;;;6.00;2.83;;;22.00;62.10;;;;;;5007403;28;20045;-65
2022/07/08 05:43:10;;;;;;;7.30;3.15;;;21.90;62.10;;;;;;5006082;28;20031;-65
2022/07/08 05:45:36;;;;;;;8.55;3.13;;;22.00;62.00;;;;;;5007162;28;20088;-66
2022/07/08 05:48:01;;;;;;;7.95;2.88;;;22.00;62.00;;;;;;5005426;28;20033;-65
2022/07/08 05:50:27;;;;;;;9.30;2.63;;;22.00;62.00;;;;;;5006612;28;20025;-65
2022/07/08 05:52:53;;;;;;;10.15;3.20;;;22.00;62.10;;;;;;5007510;28;20037;-66
2022/07/08 05:55:18;;;;;;;9.85;3.13;;;22.00;62.30;;;;;;5007707;28;20576;-66
2022/07/08 05:57:44;;;;;;;7.93;2.97;;;22.00;62.30;;;;;;5008173;28;20422;-66
2022/07/08 06:00:10;;;;;;;10.05;2.90;;;22.00;62.50;;;;;;5007322;28;20032;-65
2022/07/08 06:02:37;;;;;;;9.55;2.95;;;22.00;62.50;;;;;;5006987;28;20108;-65
2022/07/08 06:05:03;;;;;;;8.63;2.97;;;22.00;62.50;;;;;;5006352;28;20645;-66
2022/07/08 06:07:28;;;;;;;7.32;3.10;;;22.00;62.50;;;;;;5005610;28;20053;-66
2022/07/08 06:09:54;;;;;;;9.30;2.92;;;22.00;62.50;;;;;;5006867;28;20053;-66
2022/07/08 06:12:19;;;;;;;11.35;3.00;;;22.00;62.50;;;;;;5006657;28;20033;-66
2022/07/08 06:14:45;;;;;;;7.88;3.13;;;22.00;62.50;;;;;;5004296;28;20386;-66
2022/07/08 06:17:11;;;;;;;8.95;2.92;;;22.00;62.60;;;;;;5005620;28;20131;-65
2022/07/08 06:19:36;;;;;;;7.22;2.75;;;22.00;62.50;;;;;;5007011;28;20616;-66
2022/07/08 06:22:02;;;;;;;8.80;2.97;;;22.10;62.60;;;;;;5005616;28;20033;-66
2022/07/08 06:24:28;;;;;;;8.75;2.95;;;22.00;62.50;;;;;;5007069;28;20052;-65
2022/07/08 06:26:54;;;;;;;7.68;2.92;;;22.00;62.50;;;;;;5006131;28;20486;-66
2022/07/08 06:29:20;;;;;;;7.30;3.22;;;22.00;62.50;;;;;;5005840;28;20052;-66
2022/07/08 06:31:45;;;;;;;8.25;3.13;;;22.10;62.60;;;;;;5005693;28;20096;-65
2022/07/08 06:34:12;;;;;;;8.77;2.80;;;22.00;62.50;;;;;;5007453;28;20255;-66
2022/07/08 06:36:37;;;;;;;8.25;3.17;;;22.10;62.60;;;;;;5006755;28;20026;-66
2022/07/08 06:39:03;;;;;;;7.63;2.83;;;22.10;62.60;;;;;;5006463;28;20081;-66
2022/07/08 06:41:29;;;;;;;9.35;3.00;;;22.10;62.60;;;;;;5008104;28;20053;-65
2022/07/08 06:43:54;;;;;;;5.57;2.60;;;22.10;62.60;;;;;;5007405;28;20657;-66
2022/07/08 06:46:20;;;;;;;9.13;2.60;;;22.10;62.60;;;;;;5006911;28;20032;-66
2022/07/08 06:48:46;;;;;;;7.20;2.83;;;22.10;62.70;;;;;;5008066;28;20584;-66
2022/07/08 06:51:11;;;;;;;7.07;3.00;;;22.10;62.60;;;;;;5005982;28;20036;-66
2022/07/08 06:56:22;;;;;;;7.40;2.92;;;22.10;62.60;;;;;;5005879;28;20040;-66
2022/07/08 06:58:47;;;;;;;7.70;2.88;;;22.10;62.60;;;;;;5006213;28;20030;-65
2022/07/08 07:01:13;;;;;;;7.88;2.78;;;22.10;62.60;;;;;;5003821;28;20037;-65
2022/07/08 07:03:39;;;;;;;6.43;2.45;;;22.10;62.60;;;;;;5005359;28;20026;-65
2022/07/08 07:06:05;;;;;;;7.20;2.72;;;22.10;62.60;;;;;;5005562;28;20025;-66
2022/07/08 07:08:30;;;;;;;8.88;3.00;;;22.10;62.60;;;;;;5004942;28;20478;-65
2022/07/08 07:10:56;;;;;;;5.75;2.58;;;22.10;62.70;;;;;;5005862;28;20108;-66
2022/07/08 07:13:22;;;;;;;7.15;3.00;;;22.10;62.60;;;;;;5004234;28;20037;-66
2022/07/08 07:15:47;;;;;;;7.57;2.75;;;22.10;62.60;;;;;;5006433;28;20026;-65
2022/07/08 07:18:13;;;;;;;7.15;2.92;;;22.10;62.60;;;;;;5007373;28;20045;-66
2022/07/08 07:20:38;;;;;;;7.15;2.80;;;22.10;62.60;;;;;;5005973;28;20387;-66
2022/07/08 07:23:04;;;;;;;6.57;2.80;;;22.10;62.60;;;;;;5005339;28;20513;-66
2022/07/08 07:25:30;;;;;;;7.07;2.50;;;22.10;62.60;;;;;;5005477;28;20041;-66
2022/07/08 07:27:55;;;;;;;6.97;2.78;;;22.20;62.60;;;;;;5004801;28;20097;-66
2022/07/08 07:30:25;;;;;;;6.28;2.78;;;22.20;62.60;;;;;;5005066;28;20116;-66
2022/07/08 07:32:51;;;;;;;8.68;2.80;;;22.20;62.60;;;;;;5005664;28;20080;-66
2022/07/08 07:35:17;;;;;;;6.72;2.58;;;22.20;62.60;;;;;;5005643;28;20025;-66
2022/07/08 07:37:42;;;;;;;8.27;2.72;;;22.20;62.60;;;;;;5006727;28;20494;-66
2022/07/08 07:40:08;;;;;;;7.20;2.60;;;22.20;62.60;;;;;;5004323;28;20046;-66
2022/07/08 07:42:34;;;;;;;7.15;2.75;;;22.20;62.60;;;;;;5004815;28;20022;-65
2022/07/08 07:45:02;;;;;;;6.25;2.88;;;22.20;62.60;;;;;;5005388;28;20044;-67
2022/07/08 07:47:28;;;;;;;6.03;2.90;;;22.20;62.60;;;;;;5005886;28;20045;-66
2022/07/08 07:49:54;;;;;;;6.90;2.92;;;22.20;62.60;;;;;;5006679;28;20030;-66
2022/07/08 07:52:19;;;;;;;6.97;2.60;;;22.30;62.70;;;;;;5005305;28;20447;-66
2022/07/08 07:54:45;;;;;;;8.43;3.03;;;22.30;62.70;;;;;;5006199;28;20080;-66
2022/07/08 07:57:11;;;;;;;6.90;2.58;;;22.30;62.70;;;;;;5004344;28;20037;-65
2022/07/08 07:59:36;;;;;;;6.45;2.47;;;22.30;62.70;;;;;;5004872;28;20037;-66
2022/07/08 08:02:02;;;;;;;6.75;2.55;;;22.30;62.70;;;;;;5004656;28;20072;-66
2022/07/08 08:04:28;;;;;;;5.15;2.47;;;22.30;62.70;;;;;;5005659;28;20040;-65
2022/07/08 08:06:54;;;;;;;6.18;2.45;;;22.20;62.60;;;;;;5006661;28;20632;-66
2022/07/08 08:09:19;;;;;;;7.65;2.60;;;22.30;62.60;;;;;;5009174;28;20053;-66
2022/07/08 08:11:45;;;;;;;6.30;2.65;;;22.30;62.60;;;;;;5009912;28;20029;-66
2022/07/08 08:14:10;;;;;;;5.28;2.60;;;22.30;62.70;;;;;;5008836;28;20576;-66
2022/07/08 08:16:36;;;;;;;6.05;2.47;;;22.30;62.70;;;;;;5009815;28;20045;-66
2022/07/08 08:19:02;;;;;;;5.72;2.63;;;22.40;62.70;;;;;;5009032;28;20419;-66
2022/07/08 08:21:29;;;;;;;7.65;2.58;;;22.40;62.60;;;;;;5007435;28;20387;-66
2022/07/08 08:23:56;;;;;;;5.47;2.55;;;22.30;62.60;;;;;;5008223;28;20925;-66
2022/07/08 08:26:23;;;;;;;6.63;2.55;;;22.40;62.50;;;;;;5008716;28;20521;-66
2022/07/08 08:28:49;;;;;;;5.85;2.40;;;22.40;62.50;;;;;;5007945;28;20026;-66
2022/07/08 08:31:15;;;;;;;5.88;2.45;;;22.40;62.50;;;;;;5007608;28;20025;-66
2022/07/08 08:33:41;;;;;;;6.85;2.60;;;22.40;62.50;;;;;;5021684;28;20029;-66
2022/07/08 08:36:07;;;;;;;6.53;2.58;;;22.40;62.30;;;;;;5007133;28;20029;-66
2022/07/08 08:38:33;;;;;;;6.72;2.75;;;22.50;62.20;;;;;;5009422;28;20029;-66
2022/07/08 08:41:01;;;;;;;6.25;2.47;;;22.40;62.30;;;;;;5009298;28;20041;-66
2022/07/08 08:43:27;;;;;;;5.97;2.60;;;22.50;62.30;;;;;;5007524;28;20037;-66
2022/07/08 08:45:53;;;;;;;6.35;2.60;;;22.40;62.40;;;;;;5022822;28;20023;-66
2022/07/08 08:48:24;;;;;;;5.90;2.50;;;22.50;62.30;;;;;;5010735;28;20490;-66
2022/07/08 08:50:54;;;;;;;4.40;2.22;;;22.50;62.30;;;;;;5007568;28;20039;-66
2022/07/08 08:53:33;;;;;;;5.40;2.40;;;22.50;62.30;;;;;;5008296;28;20105;-66
2022/07/08 08:56:00;;;;;;;5.38;2.50;;;22.50;62.00;;;;;;5007972;28;20063;-66
2022/07/08 08:58:25;;;;;;;5.57;2.40;;;22.60;62.30;;;;;;5008466;28;20025;-65
2022/07/08 09:00:51;;;;;;;6.15;2.65;;;22.50;62.10;;;;;;5005540;28;20052;-66
2022/07/08 09:03:17;;;;;;;6.47;2.58;;;22.60;62.30;;;;;;5008897;28;20026;-67
2022/07/08 09:05:42;;;;;;;5.60;2.60;;;22.60;62.20;;;;;;5009549;28;20034;-67
2022/07/08 09:08:08;;;;;;;5.70;2.65;;;22.60;62.20;;;;;;5007816;28;20045;-66
2022/07/08 09:10:34;;;;;;;5.55;2.40;;;22.70;62.20;;;;;;5007781;28;20026;-65
2022/07/08 09:13:02;;;;;;;8.77;2.63;;;22.70;62.30;;;;;;5020645;28;20030;-70
2022/07/08 09:15:37;;;;;;;6.07;2.22;;;22.60;62.20;;;;;;5002984;28;20029;-68
2022/07/08 09:18:10;;;;;;;5.68;2.60;;;22.70;62.30;;;;;;5006738;28;20046;-69
2022/07/08 09:20:48;;;;;;;6.63;2.53;;;22.70;62.30;;;;;;5009107;28;20038;-66
2022/07/08 09:23:23;;;;;;;6.55;2.50;;;22.80;62.40;;;;;;5008238;28;20524;-70
2022/07/08 09:25:53;;;;;;;5.45;2.40;;;22.80;62.30;;;;;;5005319;28;20382;-70
2022/07/08 09:28:38;;;;;;;5.05;2.42;;;22.80;62.30;;;;;;5005339;28;20057;-68
2022/07/08 09:31:05;;;;;;;4.78;2.47;;;22.90;62.30;;;;;;5007483;28;20518;-69
2022/07/08 09:33:31;;;;;;;5.15;2.30;;;22.90;62.20;;;;;;5008521;28;20040;-69
2022/07/08 09:36:00;;;;;;;6.75;2.60;;;22.90;62.30;;;;;;5008674;28;20036;-72
2022/07/08 09:38:26;;;;;;;7.13;2.47;;;22.90;62.10;;;;;;5007848;28;20038;-68
2022/07/08 09:40:58;;;;;;;5.10;2.30;;;22.90;62.10;;;;;;5007155;28;20490;-68
2022/07/08 09:43:25;;;;;;;5.32;2.53;;;23.00;62.20;;;;;;5006266;28;20045;-71
2022/07/08 09:45:52;;;;;;;5.88;2.38;;;23.00;62.10;;;;;;5012252;28;20030;-71
2022/07/08 09:48:20;;;;;;;6.60;2.20;;;23.00;62.00;;;;;;5021665;28;20041;-72
2022/07/08 09:50:49;;;;;;;4.88;2.13;;;23.00;62.00;;;;;;5024320;28;20029;-71
2022/07/08 09:53:23;;;;;;;7.03;2.70;;;23.00;61.90;;;;;;5006239;28;20395;-71
2022/07/08 09:55:53;;;;;;;5.30;2.30;;;23.00;61.90;;;;;;5004265;28;20066;-70
2022/07/08 09:58:26;;;;;;;6.18;2.20;;;23.10;61.80;;;;;;5005533;28;20048;-71
2022/07/08 10:00:53;;;;;;;4.05;2.30;;;23.10;61.70;;;;;;5006877;28;20137;-72
2022/07/08 10:03:19;;;;;;;5.35;2.38;;;23.10;61.70;;;;;;5010496;28;20029;-70
2022/07/08 10:05:45;;;;;;;4.32;2.10;;;23.10;61.70;;;;;;5005986;28;20030;-72
2022/07/08 10:08:11;;;;;;;3.63;2.05;;;23.10;61.50;;;;;;5007012;28;20025;-70
2022/07/08 10:10:38;;;;;;;6.68;2.40;;;23.20;61.60;;;;;;5008094;28;20378;-71
2022/07/08 10:13:04;;;;;;;5.10;2.40;;;23.20;61.50;;;;;;5007980;28;20030;-71
2022/07/08 10:15:31;;;;;;;5.53;2.47;;;23.20;61.50;;;;;;5007969;28;20033;-70
2022/07/08 10:18:25;;;;;;;4.72;2.25;;;23.20;61.40;;;;;;5005865;28;20049;-72
2022/07/08 10:20:55;;;;;;;4.75;2.30;;;23.20;61.40;;;;;;5006565;28;20042;-71
2022/07/08 10:23:29;;;;;;;4.32;1.98;;;23.30;61.50;;;;;;5017986;28;20055;-71
2022/07/08 10:25:56;;;;;;;5.68;2.22;;;23.30;61.50;;;;;;5007461;28;20445;-71
2022/07/08 10:28:40;;;;;;;5.80;2.28;;;23.30;61.50;;;;;;5021682;28;20084;-73
2022/07/08 10:31:23;;;;;;;6.00;2.35;;;23.30;61.40;;;;;;5003438;28;20030;-70
2022/07/08 10:33:50;;;;;;;4.88;2.10;;;23.30;61.20;;;;;;5005928;28;20455;-72
2022/07/08 10:36:20;;;;;;;5.05;2.20;;;23.30;61.20;;;;;;5005436;28;20502;-72
2022/07/08 10:38:46;;;;;;;5.00;2.38;;;23.30;61.10;;;;;;5003756;28;20030;-72
2022/07/08 10:41:13;;;;;;;6.18;2.40;;;23.40;61.20;;;;;;5006449;28;20498;-72
2022/07/08 10:43:57;;;;;;;4.75;2.47;;;23.40;61.10;;;;;;5004930;28;20033;-73
2022/07/08 10:46:26;;;;;;;6.97;2.50;;;23.30;61.40;;;;;;5006196;28;20025;-72
2022/07/08 10:48:53;;;;;;;5.68;2.80;;;23.40;61.10;;;;;;5007638;28;20061;-72
2022/07/08 10:51:19;;;;;;;9.73;3.33;;;23.40;61.10;;;;;;5003517;28;20045;-72
2022/07/08 10:53:49;;;;;;;10.38;5.00;;;23.40;61.30;;;;;;5005743;28;20053;-71
2022/07/08 10:56:49;;;;;;;15.18;8.13;;;23.40;61.30;;;;;;5002889;28;20032;-72
2022/07/08 10:59:21;;;;;;;13.77;7.22;;;23.40;61.00;;;;;;5005816;28;20474;-72
2022/07/08 11:02:14;;;;;;;15.68;6.85;;;23.40;60.80;;;;;;5006255;28;20010;-72
2022/07/08 11:04:40;;;;;;;12.75;6.65;;;23.50;60.70;;;;;;5005889;28;20048;-72
2022/07/08 11:07:22;;;;;;;11.00;5.95;;;23.50;60.70;;;;;;5007862;28;20184;-71
2022/07/08 11:10:11;;;;;;;9.90;5.80;;;23.50;60.80;;;;;;5006194;28;20030;-72
2022/07/08 11:12:49;;;;;;;11.45;5.25;;;23.50;60.80;;;;;;5005057;28;20048;-72
2022/07/08 11:15:16;;;;;;;10.68;5.43;;;23.50;60.80;;;;;;5006041;28;20100;-72
2022/07/08 11:17:42;;;;;;;11.77;5.38;;;23.60;60.80;;;;;;5003225;28;20096;-72
2022/07/08 11:20:12;;;;;;;11.02;5.20;;;23.60;60.80;;;;;;5006407;28;20034;-72
2022/07/08 11:22:39;;;;;;;9.77;4.57;;;23.60;60.80;;;;;;5007921;28;20104;-72
2022/07/08 11:25:05;;;;;;;8.23;4.60;;;23.60;60.80;;;;;;5006101;28;20029;-72
2022/07/08 11:27:33;;;;;;;11.40;4.78;;;23.60;60.70;;;;;;5003971;28;20490;-72
2022/07/08 11:29:59;;;;;;;9.13;4.57;;;23.60;60.60;;;;;;5008332;28;20041;-72
2022/07/08 11:32:25;;;;;;;9.73;4.75;;;23.70;60.60;;;;;;5006983;28;20375;-72
2022/07/08 11:34:52;;;;;;;8.90;4.50;;;23.60;60.50;;;;;;5006802;28;20120;-72
2022/07/08 11:37:17;;;;;;;9.48;4.30;;;23.70;60.60;;;;;;5006248;28;20033;-73
2022/07/08 11:39:43;;;;;;;9.10;4.57;;;23.70;60.40;;;;;;5005646;28;20039;-72
2022/07/08 11:42:09;;;;;;;8.68;4.18;;;23.70;60.40;;;;;;5007128;28;20050;-72
2022/07/08 11:44:35;;;;;;;7.60;4.00;;;23.70;60.30;;;;;;5006094;28;20025;-72
2022/07/08 11:47:01;;;;;;;8.15;4.10;;;23.70;60.30;;;;;;5006985;28;20049;-73
2022/07/08 11:49:27;;;;;;;9.20;4.22;;;23.70;60.20;;;;;;5000862;28;20480;-72
2022/07/08 11:51:56;;;;;;;7.57;3.80;;;23.80;60.20;;;;;;5007033;28;20106;-72
2022/07/08 11:54:26;;;;;;;7.43;3.92;;;23.80;60.20;;;;;;5004458;28;20057;-73
2022/07/08 11:56:53;;;;;;;8.13;3.75;;;23.80;60.10;;;;;;5003844;28;20026;-73
2022/07/08 11:59:27;;;;;;;8.43;4.20;;;23.80;60.00;;;;;;5006408;28;20041;-72
2022/07/08 12:01:53;;;;;;;7.70;3.63;;;23.80;60.00;;;;;;5006059;28;20040;-72
2022/07/08 12:04:19;;;;;;;7.05;3.63;;;23.80;59.90;;;;;;5004540;28;20847;-72
2022/07/08 12:06:46;;;;;;;8.27;4.07;;;23.80;59.50;;;;;;5005746;28;20026;-72
2022/07/08 12:09:12;;;;;;;7.47;3.40;;;23.70;58.90;;;;;;5006970;28;20076;-70
2022/07/08 12:11:41;;;;;;;10.57;3.58;;;23.70;57.90;;;;;;5006341;28;20034;-70
2022/07/08 12:14:08;;;;;;;8.60;4.13;;;23.80;58.20;;;;;;5005003;28;20026;-69
2022/07/08 12:16:48;;;;;;;9.73;3.88;;;23.80;57.30;;;;;;5003476;28;20483;-70
2022/07/08 12:19:35;;;;;;;7.45;3.53;;;23.80;56.80;;;;;;5006053;28;20069;-69
2022/07/08 12:22:05;;;;;;;9.60;3.55;;;23.80;56.90;;;;;;5004014;28;20487;-70
2022/07/08 12:24:36;;;;;;;10.20;3.63;;;23.80;57.30;;;;;;5001850;28;20467;-69
2022/07/08 12:27:07;;;;;;;10.43;3.40;;;23.90;57.50;;;;;;5005290;28;20061;-70
2022/07/08 12:29:37;;;;;;;8.52;3.47;;;23.80;57.60;;;;;;5004211;28;20411;-70
2022/07/08 12:32:06;;;;;;;8.05;3.42;;;23.90;57.80;;;;;;5004495;28;20033;-69
2022/07/08 12:34:32;;;;;;;7.93;3.53;;;23.90;58.00;;;;;;5004784;28;20037;-69
2022/07/08 12:37:21;;;;;;;8.00;3.95;;;23.90;58.10;;;;;;5004850;28;20056;-70
2022/07/08 12:39:48;;;;;;;6.60;3.28;;;24.00;58.20;;;;;;5002590;28;20524;-69
2022/07/08 12:42:22;;;;;;;8.35;3.60;;;24.00;58.30;;;;;;5004074;28;20022;-69
2022/07/08 12:44:51;;;;;;;7.10;3.10;;;24.00;58.20;;;;;;4990355;28;20030;-69
2022/07/08 12:47:17;;;;;;;7.65;3.30;;;24.00;58.20;;;;;;5005566;28;20034;-69
2022/07/08 12:49:45;;;;;;;6.15;2.75;;;24.00;58.20;;;;;;5006851;28;20509;-69
2022/07/08 12:52:11;;;;;;;7.15;3.30;;;24.00;58.20;;;;;;5006467;28;20030;-69